Detall de PIREP

Printer-friendly versionPDF version

[2010/02/09 21:42:00]
Flight IATA:CT0001
Pilot Number:041
Company ICAO:CAT
Aircraft Type:BE58/A
PAX:4
Departing Airport: LEVC
Destination Airport: LEIB
Alternate Airport:LEPA
Online: VATSIM
Route:NINOT2A NINOT1N
Flight Level:FL80
No Slew and time accel
No pause
Crash detect
Detect pilot in Cockpit between each 30 and 45 minutes
21:42 Zero fuel Weight: 4841 Lbs, Fuel Weight: 425 Lbs
21:42 VATSIM:LEVC 092130Z 32005KT 280V340 CAVOK 07/01 Q1003 NOSIG
21:42 VATSIM:LEIB 092130Z 00000KT CAVOK 07/02 Q1002 NOSIG
21:42 VOICE CATALONIAN
21:44 Parking Brakes off
21:51 Take-off
21:51 Take off Weight: 5262 Lbs
21:51 Wind: 323º @ 004 Knots Heading: 296º
21:51 POS N39º 29´ 15´´ W000º 28´ 37´´
21:51 Gear Up: 108 Knots
21:51 Flaps:1 at 108 Knots
21:51 Flaps:0 at 123 Knots
22:03 TOC
22:03 Fuel Weight: 370 Lb
22:06 Wind:328º@026 Knots Heading: 125º Ground Speed: 230 Knots Altitud
e 7732 ft
22:16 TOD
22:16 Fuel Weight: 322 Lb
22:21 Wind:328º@011 Knots Heading: 104º Ground Speed: 199 Knots Altitude 3428 ft
22:28 Flaps:1 at 149 Knots
22:35 Gear Down: 129 Knots
22:36 Wind:328º@002 Knots Heading: 254º Ground Speed: 130 Knots Altitude 2152 ft
22:36 Flaps:2 at 129 Knots
22:39 TouchDown:Rate -99 ft/min Speed: 89 Knots
22:39 Flaps:0 at 78 Knots
22:39 VATSIM:LEIB 092200Z 00000KT CAVOK 07/03 Q1003 NOSIG
22:39 Land
22:39 Wind:330º@002 Knots
22:39 Heading: 242º
22:39 Flight Duration: 00:48
22:39 Landing Weight: 5108 Lbs
22:39 POS N38º 52´ 22´´ E001º 22´ 24´´
22:42 Parking brakes on
22:42 Block to Block Duration: 00:58
22:42 Final Fuel: 264 Lbls
22:42 Spent Fuel: 160 Lbls
22:42 Flight Length: 146 NM
22:42 TOD Land Length: 61 NM

Exportar CSV

Powered by Drupal - Modified by Danger4k